Friday, December 14, 2018, 8:03 PM EST
Back to Local

KMQE, Milton Blue Hill Observ

Location: Milton, MA, United States Lat: 42.217
Local Time: 8:03 PM EST ( 1:03 GMT) Lon: -71.117
Time Zone: US/Eastern Elev: 629 ft

Show me the last for .
Show Coded

Time T Td Feel RH Dir Speed Gust Alt SLP Vis Weather Sky Remarks
2018-12-14 18:56 39 37 31 92 180° 14 - 30.31 30.36 0 6-hr Min Temp (7pm): 39.0°F
6-hr Max Temp (7pm): 45.0°F
2018-12-14 17:56 39 35 32 85 160° 12 - 30.34 30.39 0 Pressure falling rapidly
2018-12-14 16:56 40 35 33 82 180° 13 - 30.35 30.40 0 None
2018-12-14 15:56 41 32 35 70 180° 9 - 30.36 30.41 0 None
2018-12-14 14:56 43 30 35 59 190° 10 16 30.36 30.41 0 None
2018-12-14 13:56 44 29 41 55 180° 6 - 30.37 30.42 0 None
2018-12-14 12:56 44 29 40 55 Variable 7 - 30.40 30.44 0 6-hr Min Temp (1pm): 28.0°F
6-hr Max Temp (1pm): 44.1°F
2018-12-14 11:56 43 27 38 52 200° 8 - 30.43 30.47 0 None
2018-12-14 10:56 40 24 36 52 Variable 6 - 30.47 30.52 0 None
2018-12-14 09:56 38 30 33 72 160° 7 - 30.49 30.54 0 None
2018-12-14 08:56 34 28 25 78 180° 13 - 30.51 30.56 0 None
2018-12-14 07:56 32 27 22 81 160° 14 - 30.48 30.54 0 None
2018-12-14 06:56 29 26 18 88 160° 14 - 30.48 30.54 0 6-hr Min Temp (7am): 28.0°F
6-hr Max Temp (7am): 30.0°F
2018-12-14 05:56 29 25 19 84 160° 13 - 30.48 30.54 0 None
2018-12-14 04:56 28 24 18 84 140° 12 - 30.47 30.53 0 None
2018-12-14 03:56 28 24 19 84 130° 10 - 30.48 30.54 0 None
2018-12-14 02:56 29 24 22 81 140° 7 - 30.51 30.56 0 None
2018-12-14 01:56 29 24 21 81 150° 8 - 30.53 30.58 0 None
2018-12-14 00:56 28 22 19 77 150° 9 - 30.52 30.58 0 6-hr Min Temp (1am): 27.0°F
6-hr Max Temp (1am): 30.0°F
2018-12-13 23:56 28 21 19 74 150° 9 - 30.51 30.57 0 24-hr Min Temp (12am): 16.0°F
24-hr Max Temp (12am): 30.9°F
2018-12-13 22:56 29 21 21 71 120° 8 - 30.51 30.57 0 None
2018-12-13 21:56 29 20 20 68 130° 10 - 30.51 30.57 0 None
2018-12-13 20:56 29 20 21 68 140° 8 - 30.52 30.58 0 None

Support USWX by starting your Amazon purchase here.